ENOA

Oseberg A Platform Heliport

Norway
METAR ENOA 230950Z 18022KT 9999 FEW020 BKN030 06/00 Q1024 W///S5
Observed Flight Rules
Feb-23 @ 09:50 UTC (37 minutes ago) Marginal Visual Flight Rules
Wind Visibility Clouds
180° at 22 knots 10,000+ meters
  • Few at 2,000' AGL
  • Broken at 3,000' AGL
Temperatures Readings
Current 6°C / 43°F
Dewpoint 0°C / 32°F
Humidity 66%
Altimeter 30.24" Hg
Pressure 1024 hPa
Elevation 5
METAR ENOA 230950Z 18022KT 9999 FEW020 BKN030 06/00 Q1024 W///S5
Observed Flight Rules
Feb-23 @ 09:50 UTC
(37 minutes ago)
MVFR
Wind Visibility
180° at 22 knots 10,000+ meters
Clouds
  • Few at 2,000' AGL
  • Broken at 3,000' AGL
Temperature Dewpoint
6°C / 43°F 0°C / 32°F
Humidity Altimeter Pressure
66% 30.24" Hg 1024 hPa